Main page
METAR-TAF:

METAR-TAF

Airports :

Zahedan Airport

Zahedan, Iran

latitude: 29-28N, longitude: 060-53E, elevation: 1370 m

Current weather observation

The report was made 35 minutes ago, at 00:00 UTC
Wind 4 kt from the Northwest
Temperature 17°C
Humidity 23%
Pressure 1017 hPa
Visibility 10 km or more
no clouds below 1500 m and no cumulonimbus

METAR: OIZH 240000Z 31004KT CAVOK 17/M04 Q1017 A3004

Time: 05:05 (00:35 UTC)

Forecast

The report was made 1 hour and 35 minutes ago, at 23:00 UTC
Forecast valid from 24 at 00 UTC to 25 at 06 UTC
Wind 10 kt from the North
Visibility 10 km or more
no clouds below 1500 m and no cumulonimbus

TAF: OIZH 232300Z 2400/2506 01005MPS CAVOK

Weather observations and forecasts of more than 4000 airports (METAR and TAF reports).

The available stations are represented by yellow and red dots on the map.

Hover mouse over dot to see the name of the station.

Then click to see weather observations and forecasts.

To change the map : click on the green buttons with a black cross to zoom in, on the green button with a dash to zoom out, or on the green arrows for adjacent maps.


METAR-TAF: